sensor_id;sensor_type;location;lat;lon;timestamp;P1;durP1;ratioP1;P2;durP2;ratioP2
9522;SDS011;63165;43.016;25.784;2022-09-09T00:01:37;7.78;;;2.90;;
9522;SDS011;63165;43.016;25.784;2022-09-09T00:04:16;7.15;;;2.97;;
9522;SDS011;63165;43.016;25.784;2022-09-09T00:06:55;5.18;;;2.92;;
9522;SDS011;63165;43.016;25.784;2022-09-09T00:09:31;8.85;;;2.85;;
9522;SDS011;63165;43.016;25.784;2022-09-09T00:12:10;5.50;;;3.13;;
9522;SDS011;63165;43.016;25.784;2022-09-09T00:14:41;6.93;;;3.13;;
9522;SDS011;63165;43.016;25.784;2022-09-09T00:17:18;6.72;;;3.03;;
9522;SDS011;63165;43.016;25.784;2022-09-09T00:19:59;4.45;;;3.00;;
9522;SDS011;63165;43.016;25.784;2022-09-09T00:22:36;7.90;;;2.80;;
9522;SDS011;63165;43.016;25.784;2022-09-09T00:25:08;10.45;;;2.97;;
9522;SDS011;63165;43.016;25.784;2022-09-09T00:27:40;10.07;;;3.40;;
9522;SDS011;63165;43.016;25.784;2022-09-09T00:30:15;7.63;;;2.97;;
9522;SDS011;63165;43.016;25.784;2022-09-09T00:32:45;8.65;;;3.20;;
9522;SDS011;63165;43.016;25.784;2022-09-09T00:35:16;4.90;;;3.05;;
9522;SDS011;63165;43.016;25.784;2022-09-09T00:37:50;4.68;;;2.90;;
9522;SDS011;63165;43.016;25.784;2022-09-09T00:40:23;6.25;;;2.78;;
9522;SDS011;63165;43.016;25.784;2022-09-09T00:43:02;4.43;;;3.15;;
9522;SDS011;63165;43.016;25.784;2022-09-09T00:45:48;5.20;;;2.92;;
9522;SDS011;63165;43.016;25.784;2022-09-09T00:48:27;6.50;;;2.70;;
9522;SDS011;63165;43.016;25.784;2022-09-09T00:51:03;7.45;;;2.75;;
9522;SDS011;63165;43.016;25.784;2022-09-09T00:53:38;11.50;;;3.20;;
9522;SDS011;63165;43.016;25.784;2022-09-09T00:56:12;6.53;;;3.00;;
9522;SDS011;63165;43.016;25.784;2022-09-09T00:58:42;6.30;;;2.70;;
9522;SDS011;63165;43.016;25.784;2022-09-09T01:01:16;6.35;;;3.13;;
9522;SDS011;63165;43.016;25.784;2022-09-09T01:03:45;3.83;;;3.03;;
9522;SDS011;63165;43.016;25.784;2022-09-09T01:06:20;5.10;;;3.20;;
9522;SDS011;63165;43.016;25.784;2022-09-09T01:09:04;10.10;;;3.08;;
9522;SDS011;63165;43.016;25.784;2022-09-09T01:11:41;8.02;;;3.10;;
9522;SDS011;63165;43.016;25.784;2022-09-09T01:14:19;8.55;;;3.40;;
9522;SDS011;63165;43.016;25.784;2022-09-09T01:16:58;9.02;;;3.30;;
9522;SDS011;63165;43.016;25.784;2022-09-09T01:19:35;7.95;;;3.13;;
9522;SDS011;63165;43.016;25.784;2022-09-09T01:22:14;4.82;;;3.00;;
9522;SDS011;63165;43.016;25.784;2022-09-09T01:25:01;6.85;;;2.70;;
9522;SDS011;63165;43.016;25.784;2022-09-09T01:27:46;8.50;;;3.15;;
9522;SDS011;63165;43.016;25.784;2022-09-09T01:30:17;7.05;;;3.28;;
9522;SDS011;63165;43.016;25.784;2022-09-09T01:32:46;11.13;;;3.28;;
9522;SDS011;63165;43.016;25.784;2022-09-09T01:35:15;5.38;;;3.10;;
9522;SDS011;63165;43.016;25.784;2022-09-09T01:37:53;5.15;;;3.25;;
9522;SDS011;63165;43.016;25.784;2022-09-09T01:40:20;11.48;;;3.20;;
9522;SDS011;63165;43.016;25.784;2022-09-09T01:42:49;7.78;;;3.25;;
9522;SDS011;63165;43.016;25.784;2022-09-09T01:45:16;7.63;;;3.05;;
9522;SDS011;63165;43.016;25.784;2022-09-09T01:47:44;6.53;;;3.35;;
9522;SDS011;63165;43.016;25.784;2022-09-09T01:50:13;6.00;;;3.25;;
9522;SDS011;63165;43.016;25.784;2022-09-09T01:52:42;6.78;;;3.20;;
9522;SDS011;63165;43.016;25.784;2022-09-09T01:55:13;5.53;;;3.25;;
9522;SDS011;63165;43.016;25.784;2022-09-09T01:57:42;5.32;;;3.15;;
9522;SDS011;63165;43.016;25.784;2022-09-09T02:00:18;6.03;;;3.10;;
9522;SDS011;63165;43.016;25.784;2022-09-09T02:02:49;6.20;;;3.35;;
9522;SDS011;63165;43.016;25.784;2022-09-09T02:05:27;6.78;;;3.10;;
9522;SDS011;63165;43.016;25.784;2022-09-09T02:08:00;4.68;;;3.25;;
9522;SDS011;63165;43.016;25.784;2022-09-09T02:10:35;16.60;;;4.00;;
9522;SDS011;63165;43.016;25.784;2022-09-09T02:13:09;10.15;;;3.25;;
9522;SDS011;63165;43.016;25.784;2022-09-09T02:15:42;6.70;;;3.72;;
9522;SDS011;63165;43.016;25.784;2022-09-09T02:18:14;12.98;;;3.70;;
9522;SDS011;63165;43.016;25.784;2022-09-09T02:20:48;7.03;;;3.60;;
9522;SDS011;63165;43.016;25.784;2022-09-09T02:23:17;6.18;;;3.05;;
9522;SDS011;63165;43.016;25.784;2022-09-09T02:25:46;5.07;;;3.30;;
9522;SDS011;63165;43.016;25.784;2022-09-09T02:28:17;6.28;;;3.33;;
9522;SDS011;63165;43.016;25.784;2022-09-09T02:30:48;5.70;;;3.90;;
9522;SDS011;63165;43.016;25.784;2022-09-09T02:33:21;6.30;;;3.50;;
9522;SDS011;63165;43.016;25.784;2022-09-09T02:35:49;7.55;;;3.53;;
9522;SDS011;63165;43.016;25.784;2022-09-09T02:38:18;5.60;;;3.15;;
9522;SDS011;63165;43.016;25.784;2022-09-09T02:40:47;7.10;;;3.70;;
9522;SDS011;63165;43.016;25.784;2022-09-09T02:43:14;5.65;;;3.70;;
9522;SDS011;63165;43.016;25.784;2022-09-09T02:45:45;5.88;;;3.78;;
9522;SDS011;63165;43.016;25.784;2022-09-09T02:48:25;9.10;;;3.58;;
9522;SDS011;63165;43.016;25.784;2022-09-09T02:51:04;8.52;;;3.70;;
9522;SDS011;63165;43.016;25.784;2022-09-09T02:53:39;7.85;;;3.75;;
9522;SDS011;63165;43.016;25.784;2022-09-09T02:56:18;5.93;;;3.53;;
9522;SDS011;63165;43.016;25.784;2022-09-09T02:58:49;7.60;;;3.50;;
9522;SDS011;63165;43.016;25.784;2022-09-09T03:01:18;5.18;;;3.72;;
9522;SDS011;63165;43.016;25.784;2022-09-09T03:03:45;8.20;;;3.83;;
9522;SDS011;63165;43.016;25.784;2022-09-09T03:06:13;7.50;;;3.55;;
9522;SDS011;63165;43.016;25.784;2022-09-09T03:08:40;6.65;;;3.58;;
9522;SDS011;63165;43.016;25.784;2022-09-09T03:11:07;8.85;;;3.72;;
9522;SDS011;63165;43.016;25.784;2022-09-09T03:13:35;5.18;;;3.70;;
9522;SDS011;63165;43.016;25.784;2022-09-09T03:16:03;11.38;;;3.63;;
9522;SDS011;63165;43.016;25.784;2022-09-09T03:18:32;6.93;;;3.55;;
9522;SDS011;63165;43.016;25.784;2022-09-09T03:20:59;6.97;;;4.10;;
9522;SDS011;63165;43.016;25.784;2022-09-09T03:23:26;10.18;;;3.85;;
9522;SDS011;63165;43.016;25.784;2022-09-09T03:25:54;7.32;;;3.72;;
9522;SDS011;63165;43.016;25.784;2022-09-09T03:28:23;6.95;;;3.85;;
9522;SDS011;63165;43.016;25.784;2022-09-09T03:30:58;5.85;;;3.40;;
9522;SDS011;63165;43.016;25.784;2022-09-09T03:33:25;5.78;;;3.85;;
9522;SDS011;63165;43.016;25.784;2022-09-09T03:35:54;5.55;;;3.90;;
9522;SDS011;63165;43.016;25.784;2022-09-09T03:38:22;6.68;;;3.70;;
9522;SDS011;63165;43.016;25.784;2022-09-09T03:40:50;4.63;;;3.97;;
9522;SDS011;63165;43.016;25.784;2022-09-09T03:43:20;10.48;;;4.18;;
9522;SDS011;63165;43.016;25.784;2022-09-09T03:45:49;6.93;;;3.92;;
9522;SDS011;63165;43.016;25.784;2022-09-09T03:48:16;8.00;;;3.70;;
9522;SDS011;63165;43.016;25.784;2022-09-09T03:50:45;9.30;;;4.10;;
9522;SDS011;63165;43.016;25.784;2022-09-09T03:53:15;9.18;;;4.25;;
9522;SDS011;63165;43.016;25.784;2022-09-09T03:55:44;8.00;;;3.63;;
9522;SDS011;63165;43.016;25.784;2022-09-09T03:58:12;10.98;;;4.00;;
9522;SDS011;63165;43.016;25.784;2022-09-09T04:00:40;8.20;;;4.30;;
9522;SDS011;63165;43.016;25.784;2022-09-09T04:03:08;5.50;;;3.42;;
9522;SDS011;63165;43.016;25.784;2022-09-09T04:05:35;9.73;;;3.72;;
9522;SDS011;63165;43.016;25.784;2022-09-09T04:08:05;6.32;;;4.00;;
9522;SDS011;63165;43.016;25.784;2022-09-09T04:10:35;10.70;;;4.70;;
9522;SDS011;63165;43.016;25.784;2022-09-09T04:13:02;8.25;;;4.07;;
9522;SDS011;63165;43.016;25.784;2022-09-09T04:15:30;11.38;;;3.85;;
9522;SDS011;63165;43.016;25.784;2022-09-09T04:17:58;13.02;;;3.85;;
9522;SDS011;63165;43.016;25.784;2022-09-09T04:20:25;8.63;;;4.03;;
9522;SDS011;63165;43.016;25.784;2022-09-09T04:22:53;11.43;;;4.40;;
9522;SDS011;63165;43.016;25.784;2022-09-09T04:25:20;15.25;;;4.22;;
9522;SDS011;63165;43.016;25.784;2022-09-09T04:27:52;7.88;;;3.95;;
9522;SDS011;63165;43.016;25.784;2022-09-09T04:30:20;12.57;;;4.40;;
9522;SDS011;63165;43.016;25.784;2022-09-09T04:32:47;10.82;;;4.10;;
9522;SDS011;63165;43.016;25.784;2022-09-09T04:35:14;8.63;;;3.80;;
9522;SDS011;63165;43.016;25.784;2022-09-09T04:37:41;8.30;;;3.50;;
9522;SDS011;63165;43.016;25.784;2022-09-09T04:40:10;7.32;;;3.70;;
9522;SDS011;63165;43.016;25.784;2022-09-09T04:42:37;12.63;;;4.20;;
9522;SDS011;63165;43.016;25.784;2022-09-09T04:45:07;6.40;;;4.05;;
9522;SDS011;63165;43.016;25.784;2022-09-09T04:47:36;9.63;;;4.07;;
9522;SDS011;63165;43.016;25.784;2022-09-09T04:50:03;14.68;;;4.75;;
9522;SDS011;63165;43.016;25.784;2022-09-09T04:52:33;11.13;;;3.95;;
9522;SDS011;63165;43.016;25.784;2022-09-09T04:55:00;7.00;;;3.97;;
9522;SDS011;63165;43.016;25.784;2022-09-09T04:57:28;6.03;;;3.85;;
9522;SDS011;63165;43.016;25.784;2022-09-09T04:59:57;14.43;;;4.80;;
9522;SDS011;63165;43.016;25.784;2022-09-09T05:02:26;10.07;;;3.97;;
9522;SDS011;63165;43.016;25.784;2022-09-09T05:04:55;15.43;;;4.55;;
9522;SDS011;63165;43.016;25.784;2022-09-09T05:07:23;11.40;;;4.30;;
9522;SDS011;63165;43.016;25.784;2022-09-09T05:09:51;8.50;;;3.83;;
9522;SDS011;63165;43.016;25.784;2022-09-09T05:12:18;13.20;;;4.63;;
9522;SDS011;63165;43.016;25.784;2022-09-09T05:14:46;7.32;;;4.18;;
9522;SDS011;63165;43.016;25.784;2022-09-09T05:17:13;12.02;;;4.72;;
9522;SDS011;63165;43.016;25.784;2022-09-09T05:19:43;13.52;;;4.18;;
9522;SDS011;63165;43.016;25.784;2022-09-09T05:22:10;26.67;;;4.60;;
9522;SDS011;63165;43.016;25.784;2022-09-09T05:24:38;11.05;;;4.22;;
9522;SDS011;63165;43.016;25.784;2022-09-09T05:27:05;10.93;;;4.18;;
9522;SDS011;63165;43.016;25.784;2022-09-09T05:29:32;7.72;;;3.80;;
9522;SDS011;63165;43.016;25.784;2022-09-09T05:32:00;10.25;;;4.00;;
9522;SDS011;63165;43.016;25.784;2022-09-09T05:34:27;8.93;;;4.53;;
9522;SDS011;63165;43.016;25.784;2022-09-09T05:36:56;13.15;;;3.75;;
9522;SDS011;63165;43.016;25.784;2022-09-09T05:39:23;9.85;;;3.67;;
9522;SDS011;63165;43.016;25.784;2022-09-09T05:41:50;7.53;;;3.70;;
9522;SDS011;63165;43.016;25.784;2022-09-09T05:44:17;8.82;;;3.95;;
9522;SDS011;63165;43.016;25.784;2022-09-09T05:46:45;7.40;;;3.85;;
9522;SDS011;63165;43.016;25.784;2022-09-09T05:49:12;6.68;;;3.75;;
9522;SDS011;63165;43.016;25.784;2022-09-09T05:51:41;5.80;;;3.55;;
9522;SDS011;63165;43.016;25.784;2022-09-09T05:54:11;6.75;;;3.80;;
9522;SDS011;63165;43.016;25.784;2022-09-09T05:56:40;7.55;;;3.90;;
9522;SDS011;63165;43.016;25.784;2022-09-09T05:59:08;12.23;;;4.43;;
9522;SDS011;63165;43.016;25.784;2022-09-09T06:01:35;10.52;;;4.90;;
9522;SDS011;63165;43.016;25.784;2022-09-09T06:04:05;9.50;;;4.82;;
9522;SDS011;63165;43.016;25.784;2022-09-09T06:06:33;17.48;;;4.72;;
9522;SDS011;63165;43.016;25.784;2022-09-09T06:09:05;12.75;;;5.20;;
9522;SDS011;63165;43.016;25.784;2022-09-09T06:11:37;19.15;;;6.40;;
9522;SDS011;63165;43.016;25.784;2022-09-09T06:14:05;14.43;;;6.25;;
9522;SDS011;63165;43.016;25.784;2022-09-09T06:16:32;15.07;;;5.93;;
9522;SDS011;63165;43.016;25.784;2022-09-09T06:19:02;12.02;;;5.30;;
9522;SDS011;63165;43.016;25.784;2022-09-09T06:21:31;9.32;;;4.97;;
9522;SDS011;63165;43.016;25.784;2022-09-09T06:23:59;11.65;;;4.63;;
9522;SDS011;63165;43.016;25.784;2022-09-09T06:26:27;9.57;;;4.60;;
9522;SDS011;63165;43.016;25.784;2022-09-09T06:28:57;10.65;;;4.60;;
9522;SDS011;63165;43.016;25.784;2022-09-09T06:31:27;21.30;;;5.05;;
9522;SDS011;63165;43.016;25.784;2022-09-09T06:33:56;5.47;;;3.55;;
9522;SDS011;63165;43.016;25.784;2022-09-09T06:36:25;9.52;;;3.75;;
9522;SDS011;63165;43.016;25.784;2022-09-09T06:38:53;9.15;;;3.78;;
9522;SDS011;63165;43.016;25.784;2022-09-09T06:41:22;8.05;;;3.20;;
9522;SDS011;63165;43.016;25.784;2022-09-09T06:43:51;6.40;;;3.50;;
9522;SDS011;63165;43.016;25.784;2022-09-09T06:46:20;11.25;;;3.90;;
9522;SDS011;63165;43.016;25.784;2022-09-09T06:48:49;8.55;;;3.33;;
9522;SDS011;63165;43.016;25.784;2022-09-09T06:51:16;13.80;;;3.38;;
9522;SDS011;63165;43.016;25.784;2022-09-09T06:53:46;9.32;;;3.22;;
9522;SDS011;63165;43.016;25.784;2022-09-09T06:56:18;6.43;;;2.95;;
9522;SDS011;63165;43.016;25.784;2022-09-09T06:58:48;6.25;;;3.10;;
9522;SDS011;63165;43.016;25.784;2022-09-09T07:01:17;5.35;;;3.00;;
9522;SDS011;63165;43.016;25.784;2022-09-09T07:03:48;7.30;;;3.20;;
9522;SDS011;63165;43.016;25.784;2022-09-09T07:06:17;5.88;;;2.80;;
9522;SDS011;63165;43.016;25.784;2022-09-09T07:08:48;8.75;;;2.83;;
9522;SDS011;63165;43.016;25.784;2022-09-09T07:11:18;4.68;;;2.85;;
9522;SDS011;63165;43.016;25.784;2022-09-09T07:13:46;5.47;;;2.58;;
9522;SDS011;63165;43.016;25.784;2022-09-09T07:16:15;7.57;;;2.75;;
9522;SDS011;63165;43.016;25.784;2022-09-09T07:18:44;7.97;;;2.58;;
9522;SDS011;63165;43.016;25.784;2022-09-09T07:21:13;4.82;;;2.38;;
9522;SDS011;63165;43.016;25.784;2022-09-09T07:23:41;7.60;;;2.70;;
9522;SDS011;63165;43.016;25.784;2022-09-09T07:26:09;4.38;;;2.60;;
9522;SDS011;63165;43.016;25.784;2022-09-09T07:28:38;6.50;;;2.60;;
9522;SDS011;63165;43.016;25.784;2022-09-09T07:31:07;5.93;;;2.80;;
9522;SDS011;63165;43.016;25.784;2022-09-09T07:33:42;5.43;;;2.83;;
9522;SDS011;63165;43.016;25.784;2022-09-09T07:36:12;80.53;;;7.07;;
9522;SDS011;63165;43.016;25.784;2022-09-09T07:38:43;7.90;;;3.80;;
9522;SDS011;63165;43.016;25.784;2022-09-09T07:41:12;7.15;;;2.80;;
9522;SDS011;63165;43.016;25.784;2022-09-09T07:43:42;5.25;;;2.72;;
9522;SDS011;63165;43.016;25.784;2022-09-09T07:46:13;7.00;;;2.80;;
9522;SDS011;63165;43.016;25.784;2022-09-09T07:48:43;7.07;;;2.70;;
9522;SDS011;63165;43.016;25.784;2022-09-09T07:51:11;4.47;;;2.60;;
9522;SDS011;63165;43.016;25.784;2022-09-09T07:53:46;4.57;;;2.30;;
9522;SDS011;63165;43.016;25.784;2022-09-09T07:56:31;5.00;;;2.70;;
9522;SDS011;63165;43.016;25.784;2022-09-09T07:59:04;3.38;;;2.17;;
9522;SDS011;63165;43.016;25.784;2022-09-09T08:04:14;4.63;;;2.45;;
9522;SDS011;63165;43.016;25.784;2022-09-09T08:06:43;4.57;;;2.50;;
9522;SDS011;63165;43.016;25.784;2022-09-09T08:09:22;4.78;;;2.40;;
9522;SDS011;63165;43.016;25.784;2022-09-09T08:11:52;7.82;;;2.50;;
9522;SDS011;63165;43.016;25.784;2022-09-09T08:14:19;4.47;;;2.70;;
9522;SDS011;63165;43.016;25.784;2022-09-09T08:16:47;5.72;;;2.45;;
9522;SDS011;63165;43.016;25.784;2022-09-09T08:19:15;3.80;;;2.22;;
9522;SDS011;63165;43.016;25.784;2022-09-09T08:21:43;5.80;;;2.38;;
9522;SDS011;63165;43.016;25.784;2022-09-09T08:24:14;4.70;;;2.47;;
9522;SDS011;63165;43.016;25.784;2022-09-09T08:26:44;5.32;;;2.50;;
9522;SDS011;63165;43.016;25.784;2022-09-09T08:29:12;4.80;;;2.67;;
9522;SDS011;63165;43.016;25.784;2022-09-09T08:31:41;5.22;;;2.50;;
9522;SDS011;63165;43.016;25.784;2022-09-09T08:34:10;5.22;;;2.22;;
9522;SDS011;63165;43.016;25.784;2022-09-09T08:36:39;6.53;;;2.30;;
9522;SDS011;63165;43.016;25.784;2022-09-09T08:39:08;7.75;;;2.83;;
9522;SDS011;63165;43.016;25.784;2022-09-09T08:44:45;5.23;;;2.43;;
9522;SDS011;63165;43.016;25.784;2022-09-09T08:47:25;7.38;;;2.97;;
9522;SDS011;63165;43.016;25.784;2022-09-09T08:50:04;4.53;;;2.55;;
9522;SDS011;63165;43.016;25.784;2022-09-09T08:52:41;10.18;;;2.70;;
9522;SDS011;63165;43.016;25.784;2022-09-09T08:55:19;4.78;;;2.65;;
9522;SDS011;63165;43.016;25.784;2022-09-09T08:57:51;5.05;;;2.63;;
9522;SDS011;63165;43.016;25.784;2022-09-09T09:00:21;10.48;;;2.80;;
9522;SDS011;63165;43.016;25.784;2022-09-09T09:02:54;5.45;;;2.20;;
9522;SDS011;63165;43.016;25.784;2022-09-09T09:05:33;5.18;;;2.40;;
9522;SDS011;63165;43.016;25.784;2022-09-09T09:08:05;6.07;;;2.40;;
9522;SDS011;63165;43.016;25.784;2022-09-09T09:10:41;5.07;;;2.40;;
9522;SDS011;63165;43.016;25.784;2022-09-09T09:13:15;9.93;;;2.47;;
9522;SDS011;63165;43.016;25.784;2022-09-09T09:15:48;3.73;;;2.27;;
9522;SDS011;63165;43.016;25.784;2022-09-09T09:18:20;18.42;;;3.08;;
9522;SDS011;63165;43.016;25.784;2022-09-09T09:20:52;4.03;;;2.20;;
9522;SDS011;63165;43.016;25.784;2022-09-09T09:23:26;5.82;;;2.30;;
9522;SDS011;63165;43.016;25.784;2022-09-09T09:26:00;6.68;;;2.38;;
9522;SDS011;63165;43.016;25.784;2022-09-09T09:28:29;5.68;;;2.45;;
9522;SDS011;63165;43.016;25.784;2022-09-09T09:30:59;5.40;;;2.53;;
9522;SDS011;63165;43.016;25.784;2022-09-09T09:33:33;12.98;;;2.80;;
9522;SDS011;63165;43.016;25.784;2022-09-09T09:36:06;5.28;;;2.45;;
9522;SDS011;63165;43.016;25.784;2022-09-09T09:38:35;13.30;;;2.60;;
9522;SDS011;63165;43.016;25.784;2022-09-09T09:41:03;10.05;;;2.70;;
9522;SDS011;63165;43.016;25.784;2022-09-09T09:43:31;4.05;;;2.60;;
9522;SDS011;63165;43.016;25.784;2022-09-09T09:46:02;8.25;;;2.67;;
9522;SDS011;63165;43.016;25.784;2022-09-09T09:48:30;6.32;;;3.05;;
9522;SDS011;63165;43.016;25.784;2022-09-09T09:51:00;8.63;;;2.60;;
9522;SDS011;63165;43.016;25.784;2022-09-09T09:53:37;7.88;;;2.72;;
9522;SDS011;63165;43.016;25.784;2022-09-09T09:56:06;8.50;;;2.67;;
9522;SDS011;63165;43.016;25.784;2022-09-09T09:58:37;8.40;;;2.58;;
9522;SDS011;63165;43.016;25.784;2022-09-09T10:01:22;13.02;;;2.63;;
9522;SDS011;63165;43.016;25.784;2022-09-09T10:03:52;14.00;;;3.28;;
9522;SDS011;63165;43.016;25.784;2022-09-09T10:06:29;7.05;;;2.92;;
9522;SDS011;63165;43.016;25.784;2022-09-09T10:08:57;7.40;;;3.00;;
9522;SDS011;63165;43.016;25.784;2022-09-09T10:11:34;7.43;;;2.80;;
9522;SDS011;63165;43.016;25.784;2022-09-09T10:14:13;5.75;;;2.75;;
9522;SDS011;63165;43.016;25.784;2022-09-09T10:16:52;14.70;;;3.00;;
9522;SDS011;63165;43.016;25.784;2022-09-09T10:19:33;6.55;;;3.10;;
9522;SDS011;63165;43.016;25.784;2022-09-09T10:25:04;7.32;;;2.92;;
9522;SDS011;63165;43.016;25.784;2022-09-09T10:27:46;8.77;;;3.03;;
9522;SDS011;63165;43.016;25.784;2022-09-09T10:30:32;12.93;;;4.15;;
9522;SDS011;63165;43.016;25.784;2022-09-09T10:33:12;6.97;;;2.50;;
9522;SDS011;63165;43.016;25.784;2022-09-09T10:35:51;10.85;;;2.97;;
9522;SDS011;63165;43.016;25.784;2022-09-09T10:38:28;5.10;;;2.80;;
9522;SDS011;63165;43.016;25.784;2022-09-09T10:44:15;12.48;;;2.90;;
9522;SDS011;63165;43.016;25.784;2022-09-09T10:49:59;7.05;;;2.90;;
9522;SDS011;63165;43.016;25.784;2022-09-09T10:52:39;4.80;;;2.30;;
9522;SDS011;63165;43.016;25.784;2022-09-09T10:55:18;7.63;;;2.65;;
9522;SDS011;63165;43.016;25.784;2022-09-09T10:57:48;16.05;;;2.60;;
9522;SDS011;63165;43.016;25.784;2022-09-09T11:00:18;7.88;;;2.65;;
9522;SDS011;63165;43.016;25.784;2022-09-09T11:02:47;6.15;;;2.55;;
9522;SDS011;63165;43.016;25.784;2022-09-09T11:05:22;5.32;;;2.55;;
9522;SDS011;63165;43.016;25.784;2022-09-09T11:07:55;5.47;;;2.65;;
9522;SDS011;63165;43.016;25.784;2022-09-09T11:10:27;4.95;;;2.78;;
9522;SDS011;63165;43.016;25.784;2022-09-09T11:13:03;8.07;;;2.67;;
9522;SDS011;63165;43.016;25.784;2022-09-09T11:15:39;6.05;;;2.55;;
9522;SDS011;63165;43.016;25.784;2022-09-09T11:18:10;8.10;;;2.60;;
9522;SDS011;63165;43.016;25.784;2022-09-09T11:20:43;12.43;;;2.85;;
9522;SDS011;63165;43.016;25.784;2022-09-09T11:23:14;11.13;;;3.00;;
9522;SDS011;63165;43.016;25.784;2022-09-09T11:25:48;6.55;;;2.85;;
9522;SDS011;63165;43.016;25.784;2022-09-09T11:28:27;8.77;;;2.70;;
9522;SDS011;63165;43.016;25.784;2022-09-09T11:31:04;11.32;;;2.90;;
9522;SDS011;63165;43.016;25.784;2022-09-09T11:33:55;7.93;;;2.60;;
9522;SDS011;63165;43.016;25.784;2022-09-09T11:36:42;13.60;;;3.03;;
9522;SDS011;63165;43.016;25.784;2022-09-09T11:39:36;11.02;;;3.08;;
9522;SDS011;63165;43.016;25.784;2022-09-09T11:42:16;5.93;;;2.42;;
9522;SDS011;63165;43.016;25.784;2022-09-09T11:44:45;12.43;;;2.90;;
9522;SDS011;63165;43.016;25.784;2022-09-09T11:47:20;5.82;;;2.60;;
9522;SDS011;63165;43.016;25.784;2022-09-09T11:49:54;12.23;;;2.78;;
9522;SDS011;63165;43.016;25.784;2022-09-09T11:52:24;5.45;;;2.53;;
9522;SDS011;63165;43.016;25.784;2022-09-09T11:55:08;13.80;;;3.05;;
9522;SDS011;63165;43.016;25.784;2022-09-09T11:57:37;6.72;;;2.60;;
9522;SDS011;63165;43.016;25.784;2022-09-09T12:00:05;8.05;;;2.83;;
9522;SDS011;63165;43.016;25.784;2022-09-09T12:02:34;6.07;;;2.60;;
9522;SDS011;63165;43.016;25.784;2022-09-09T12:05:02;9.82;;;2.88;;
9522;SDS011;63165;43.016;25.784;2022-09-09T12:07:35;8.50;;;2.65;;
9522;SDS011;63165;43.016;25.784;2022-09-09T12:10:05;6.60;;;2.33;;
9522;SDS011;63165;43.016;25.784;2022-09-09T12:12:49;7.68;;;2.47;;
9522;SDS011;63165;43.016;25.784;2022-09-09T12:15:17;18.83;;;3.03;;
9522;SDS011;63165;43.016;25.784;2022-09-09T12:17:53;12.55;;;2.60;;
9522;SDS011;63165;43.016;25.784;2022-09-09T12:20:23;7.97;;;2.60;;
9522;SDS011;63165;43.016;25.784;2022-09-09T12:23:05;7.47;;;2.75;;
9522;SDS011;63165;43.016;25.784;2022-09-09T12:25:48;9.88;;;2.42;;
9522;SDS011;63165;43.016;25.784;2022-09-09T12:28:26;11.75;;;2.72;;
9522;SDS011;63165;43.016;25.784;2022-09-09T12:31:07;8.15;;;2.83;;
9522;SDS011;63165;43.016;25.784;2022-09-09T12:33:42;4.22;;;2.65;;
9522;SDS011;63165;43.016;25.784;2022-09-09T12:36:12;11.23;;;2.50;;
9522;SDS011;63165;43.016;25.784;2022-09-09T12:38:44;8.25;;;2.85;;
9522;SDS011;63165;43.016;25.784;2022-09-09T12:41:19;8.15;;;2.38;;
9522;SDS011;63165;43.016;25.784;2022-09-09T12:43:47;4.63;;;2.50;;
9522;SDS011;63165;43.016;25.784;2022-09-09T12:46:20;7.60;;;2.70;;
9522;SDS011;63165;43.016;25.784;2022-09-09T12:48:51;12.90;;;2.90;;
9522;SDS011;63165;43.016;25.784;2022-09-09T12:51:22;8.52;;;2.72;;
9522;SDS011;63165;43.016;25.784;2022-09-09T12:53:53;6.25;;;2.72;;
9522;SDS011;63165;43.016;25.784;2022-09-09T12:56:22;11.63;;;2.90;;
9522;SDS011;63165;43.016;25.784;2022-09-09T12:58:53;9.30;;;3.10;;
9522;SDS011;63165;43.016;25.784;2022-09-09T13:01:23;7.70;;;2.55;;
9522;SDS011;63165;43.016;25.784;2022-09-09T13:03:52;7.07;;;2.85;;
9522;SDS011;63165;43.016;25.784;2022-09-09T13:06:20;7.72;;;2.90;;
9522;SDS011;63165;43.016;25.784;2022-09-09T13:08:49;9.18;;;2.92;;
9522;SDS011;63165;43.016;25.784;2022-09-09T13:11:20;12.75;;;2.95;;
9522;SDS011;63165;43.016;25.784;2022-09-09T13:13:51;9.63;;;2.80;;
9522;SDS011;63165;43.016;25.784;2022-09-09T13:16:22;9.95;;;2.92;;
9522;SDS011;63165;43.016;25.784;2022-09-09T13:18:57;6.20;;;2.85;;
9522;SDS011;63165;43.016;25.784;2022-09-09T13:21:33;8.65;;;2.80;;
9522;SDS011;63165;43.016;25.784;2022-09-09T13:24:03;6.90;;;2.80;;
9522;SDS011;63165;43.016;25.784;2022-09-09T13:26:34;6.05;;;2.75;;
9522;SDS011;63165;43.016;25.784;2022-09-09T13:29:15;15.40;;;3.70;;
9522;SDS011;63165;43.016;25.784;2022-09-09T13:31:46;11.10;;;2.83;;
9522;SDS011;63165;43.016;25.784;2022-09-09T13:34:25;10.68;;;2.63;;
9522;SDS011;63165;43.016;25.784;2022-09-09T13:36:54;6.25;;;2.80;;
9522;SDS011;63165;43.016;25.784;2022-09-09T13:39:26;10.48;;;3.03;;
9522;SDS011;63165;43.016;25.784;2022-09-09T13:41:55;7.38;;;3.28;;
9522;SDS011;63165;43.016;25.784;2022-09-09T13:44:23;8.27;;;2.90;;
9522;SDS011;63165;43.016;25.784;2022-09-09T13:47:02;6.18;;;3.03;;
9522;SDS011;63165;43.016;25.784;2022-09-09T13:49:31;10.65;;;3.17;;
9522;SDS011;63165;43.016;25.784;2022-09-09T13:52:04;9.50;;;3.03;;
9522;SDS011;63165;43.016;25.784;2022-09-09T13:54:32;6.40;;;3.22;;
9522;SDS011;63165;43.016;25.784;2022-09-09T13:57:02;10.07;;;2.95;;
9522;SDS011;63165;43.016;25.784;2022-09-09T13:59:30;5.30;;;2.92;;
9522;SDS011;63165;43.016;25.784;2022-09-09T14:01:58;10.55;;;3.20;;
9522;SDS011;63165;43.016;25.784;2022-09-09T14:04:27;7.28;;;3.28;;
9522;SDS011;63165;43.016;25.784;2022-09-09T14:06:54;9.55;;;2.97;;
9522;SDS011;63165;43.016;25.784;2022-09-09T14:09:22;24.15;;;3.30;;
9522;SDS011;63165;43.016;25.784;2022-09-09T14:11:49;6.38;;;2.80;;
9522;SDS011;63165;43.016;25.784;2022-09-09T14:14:18;8.63;;;3.22;;
9522;SDS011;63165;43.016;25.784;2022-09-09T14:16:45;5.28;;;3.08;;
9522;SDS011;63165;43.016;25.784;2022-09-09T14:19:13;11.25;;;3.80;;
9522;SDS011;63165;43.016;25.784;2022-09-09T14:21:40;5.68;;;3.00;;
9522;SDS011;63165;43.016;25.784;2022-09-09T14:24:07;12.98;;;3.35;;
9522;SDS011;63165;43.016;25.784;2022-09-09T14:26:35;7.68;;;2.65;;
9522;SDS011;63165;43.016;25.784;2022-09-09T14:29:05;9.07;;;3.08;;
9522;SDS011;63165;43.016;25.784;2022-09-09T14:31:34;7.40;;;3.08;;
9522;SDS011;63165;43.016;25.784;2022-09-09T14:34:01;11.82;;;3.40;;
9522;SDS011;63165;43.016;25.784;2022-09-09T14:36:28;19.13;;;3.38;;
9522;SDS011;63165;43.016;25.784;2022-09-09T14:38:55;12.43;;;2.95;;
9522;SDS011;63165;43.016;25.784;2022-09-09T14:41:22;7.57;;;2.95;;
9522;SDS011;63165;43.016;25.784;2022-09-09T14:43:50;9.63;;;3.20;;
9522;SDS011;63165;43.016;25.784;2022-09-09T14:46:19;7.63;;;2.95;;
9522;SDS011;63165;43.016;25.784;2022-09-09T14:48:48;5.18;;;2.90;;
9522;SDS011;63165;43.016;25.784;2022-09-09T14:51:17;7.03;;;3.15;;
9522;SDS011;63165;43.016;25.784;2022-09-09T14:53:47;10.35;;;3.20;;
9522;SDS011;63165;43.016;25.784;2022-09-09T14:56:19;5.38;;;2.80;;
9522;SDS011;63165;43.016;25.784;2022-09-09T14:58:48;10.52;;;3.15;;
9522;SDS011;63165;43.016;25.784;2022-09-09T15:01:16;7.05;;;3.33;;
9522;SDS011;63165;43.016;25.784;2022-09-09T15:03:50;9.63;;;3.22;;
9522;SDS011;63165;43.016;25.784;2022-09-09T15:06:18;10.70;;;3.35;;
9522;SDS011;63165;43.016;25.784;2022-09-09T15:08:47;11.77;;;3.30;;
9522;SDS011;63165;43.016;25.784;2022-09-09T15:11:16;7.57;;;3.08;;
9522;SDS011;63165;43.016;25.784;2022-09-09T15:13:44;9.38;;;3.08;;
9522;SDS011;63165;43.016;25.784;2022-09-09T15:16:13;6.32;;;3.28;;
9522;SDS011;63165;43.016;25.784;2022-09-09T15:18:41;9.65;;;3.10;;
9522;SDS011;63165;43.016;25.784;2022-09-09T15:21:11;11.55;;;3.38;;
9522;SDS011;63165;43.016;25.784;2022-09-09T15:23:41;10.98;;;3.70;;